Time;durP1;ratioP1;P1;durP2;ratioP2;P2;SDS_P1;SDS_P2;PMS_P1;PMS_P2;Temp;Humidity;BMP_temperature;BMP_pressure;BME280_temperature;BME280_humidity;BME280_pressure;Samples;Min_cycle;Max_cycle;Signal;HPM_P1;HPM_P2
2022/08/13 00:00:49;;;;;;;;;;;;;;;30.16;26.99;98933.16;4505632;31;34055;-86
2022/08/13 00:03:18;;;;;;;;;;;;;;;30.12;27.01;98939.66;4515223;31;33107;-86
2022/08/13 00:06:08;;;;;;;;;;;;;;;30.20;26.95;98937.34;4513748;31;35081;-84
2022/08/13 00:08:48;;;;;;;;;;;;;;;29.71;27.66;98940.78;4504414;31;34291;-85
2022/08/13 00:12:56;;;;;;;;;;;;;;;29.69;27.76;98940.00;4515027;31;34374;-86
2022/08/13 00:14:26;;;;;;;;;;;;;;;29.99;27.45;98937.88;4514917;31;32861;-86
2022/08/13 00:17:06;;;;;;;;;;;;;;;29.87;27.71;98932.53;4515192;31;34587;-87
2022/08/13 00:19:39;;;;;;;;;;;;;;;30.01;27.37;98933.28;4515102;31;35384;-87
2022/08/13 00:22:09;;;;;;;;;;;;;;;30.10;27.22;98917.53;4514840;31;35194;-86
2022/08/13 00:24:57;;;;;;;;;;;;;;;30.19;27.01;98917.78;4515092;31;34200;-87
2022/08/13 00:27:25;;;;;;;;;;;;;;;29.89;27.48;98918.13;4514840;31;34341;-87
2022/08/13 00:29:54;;;;;;;;;;;;;;;29.99;27.46;98910.28;4514748;31;34499;-88
2022/08/13 00:32:29;;;;;;;;;;;;;;;30.00;27.54;98920.88;4515022;31;34888;-87
2022/08/13 00:34:58;;;;;;;;;;;;;;;30.24;27.21;98912.09;4514166;31;32970;-87
2022/08/13 00:37:26;;;;;;;;;;;;;;;30.16;27.49;98909.97;4514410;31;34989;-87
2022/08/13 00:40:00;;;;;;;;;;;;;;;30.04;27.77;98900.97;4514398;31;34302;-87
2022/08/13 00:42:47;;;;;;;;;;;;;;;30.03;27.96;98904.59;4515098;31;34681;-87
2022/08/13 00:45:17;;;;;;;;;;;;;;;30.18;27.86;98894.66;4515297;31;34200;-86
2022/08/13 00:50:34;;;;;;;;;;;;;;;30.33;27.86;98905.22;4513868;31;34472;-87
2022/08/13 00:53:04;;;;;;;;;;;;;;;30.37;28.01;98901.34;4514222;31;32714;-87
2022/08/13 00:55:32;;;;;;;;;;;;;;;30.41;28.17;98906.34;4514032;31;32990;-86
2022/08/13 00:58:00;;;;;;;;;;;;;;;30.45;28.03;98899.81;4515059;31;34119;-85
2022/08/13 01:00:28;;;;;;;;;;;;;;;30.19;28.56;98898.19;4515174;31;35154;-86
2022/08/13 01:02:55;;;;;;;;;;;;;;;30.34;28.34;98898.91;4514343;31;35274;-86
2022/08/13 01:05:26;;;;;;;;;;;;;;;30.42;28.21;98901.84;4515075;31;33693;-85
2022/08/13 01:08:07;;;;;;;;;;;;;;;30.45;28.40;98899.81;4514962;31;34371;-88
2022/08/13 01:10:36;;;;;;;;;;;;;;;30.39;28.53;98889.59;4514894;31;34013;-85
2022/08/13 01:13:11;;;;;;;;;;;;;;;30.42;28.65;98891.16;4513587;31;34987;-85
2022/08/13 01:15:39;;;;;;;;;;;;;;;30.54;28.45;98882.25;4514970;31;33307;-87
2022/08/13 01:18:23;;;;;;;;;;;;;;;30.67;28.34;98880.34;4504364;31;34127;-88
2022/08/13 01:20:58;;;;;;;;;;;;;;;30.68;28.42;98879.38;4514902;31;34581;-87
2022/08/13 01:23:25;;;;;;;;;;;;;;;30.75;28.41;98880.66;4514416;31;34344;-84
2022/08/13 01:26:07;;;;;;;;;;;;;;;30.71;28.51;98881.84;4514415;31;33538;-83
2022/08/13 01:28:38;;;;;;;;;;;;;;;30.47;28.96;98873.81;4514985;31;33852;-86
2022/08/13 01:31:10;;;;;;;;;;;;;;;30.33;29.20;98878.47;4514994;31;34517;-84
2022/08/13 01:33:48;;;;;;;;;;;;;;;30.27;29.53;98877.12;4512190;31;34301;-85
2022/08/13 01:36:20;;;;;;;;;;;;;;;30.08;29.67;98879.34;4514477;31;34108;-85
2022/08/13 01:39:07;;;;;;;;;;;;;;;30.40;29.38;98866.37;4513634;31;34944;-86
2022/08/13 01:41:44;;;;;;;;;;;;;;;30.52;29.28;98874.31;4513155;31;34250;-85
2022/08/13 01:44:25;;;;;;;;;;;;;;;30.28;29.45;98873.47;4514616;31;34946;-86
2022/08/13 01:53:08;;;;;;;;;;;;;;;29.69;30.47;98883.91;4506161;31;34499;-85
2022/08/13 01:55:39;;;;;;;;;;;;;;;29.29;31.44;98886.66;4514503;31;35316;-86
2022/08/13 01:58:29;;;;;;;;;;;;;;;29.18;31.68;98876.72;4514405;31;34330;-85
2022/08/13 02:01:01;;;;;;;;;;;;;;;29.06;31.70;98873.06;4508732;31;35011;-85
2022/08/13 02:03:35;;;;;;;;;;;;;;;29.30;31.56;98881.19;4509848;31;35073;-85
2022/08/13 02:06:03;;;;;;;;;;;;;;;29.24;31.54;98878.09;4514305;31;34288;-86
2022/08/13 02:08:51;;;;;;;;;;;;;;;29.09;31.81;98880.87;4514192;31;33527;-85
2022/08/13 02:11:19;;;;;;;;;;;;;;;29.24;31.51;98872.75;4514453;31;34923;-85
2022/08/13 02:13:52;;;;;;;;;;;;;;;28.72;32.23;98877.09;4505625;31;34406;-87
2022/08/13 02:16:21;;;;;;;;;;;;;;;29.49;31.19;98878.13;4498707;31;34331;-85
2022/08/13 02:18:53;;;;;;;;;;;;;;;28.71;32.40;98874.53;4501039;31;33343;-85
2022/08/13 02:21:22;;;;;;;;;;;;;;;28.50;32.74;98869.66;4514467;31;34120;-85
2022/08/13 02:23:57;;;;;;;;;;;;;;;28.90;32.11;98868.81;4510147;31;35220;-85
2022/08/13 02:26:29;;;;;;;;;;;;;;;28.48;32.56;98871.56;4512141;31;33644;-85
2022/08/13 02:28:58;;;;;;;;;;;;;;;28.54;32.55;98868.50;4514133;31;33848;-85
2022/08/13 02:31:26;;;;;;;;;;;;;;;27.58;34.18;98875.44;4500775;31;32873;-85
2022/08/13 02:34:13;;;;;;;;;;;;;;;28.02;33.46;98865.66;4504799;31;35262;-86
2022/08/13 02:36:45;;;;;;;;;;;;;;;28.22;33.06;98873.22;4509420;31;34348;-85
2022/08/13 02:39:14;;;;;;;;;;;;;;;27.36;34.79;98867.91;4497856;31;33932;-85
2022/08/13 02:41:43;;;;;;;;;;;;;;;26.41;36.57;98875.25;4506724;31;34946;-85
2022/08/13 02:44:25;;;;;;;;;;;;;;;26.91;35.95;98875.00;4513389;31;34275;-85
2022/08/13 02:47:04;;;;;;;;;;;;;;;25.99;37.91;98870.50;4514120;31;34467;-85
2022/08/13 02:49:33;;;;;;;;;;;;;;;26.50;37.01;98864.09;4513371;31;34387;-86
2022/08/13 02:52:13;;;;;;;;;;;;;;;26.76;36.61;98865.25;4514733;31;33874;-86
2022/08/13 02:54:43;;;;;;;;;;;;;;;27.36;35.38;98867.06;4515627;31;34113;-87
2022/08/13 02:57:22;;;;;;;;;;;;;;;26.96;36.21;98863.22;4515718;31;34735;-85
2022/08/13 02:59:50;;;;;;;;;;;;;;;27.21;35.82;98857.34;4515455;31;33241;-86
2022/08/13 03:02:30;;;;;;;;;;;;;;;25.87;38.55;98862.25;4514899;31;33798;-87
2022/08/13 03:04:59;;;;;;;;;;;;;;;26.60;37.28;98862.66;4504117;31;34102;-87
2022/08/13 03:07:29;;;;;;;;;;;;;;;27.15;36.12;98864.72;4515939;31;33715;-87
2022/08/13 03:10:17;;;;;;;;;;;;;;;26.29;37.70;98863.50;4506177;31;33546;-87
2022/08/13 03:12:46;;;;;;;;;;;;;;;26.33;37.88;98864.16;4515747;31;34227;-87
2022/08/13 03:15:13;;;;;;;;;;;;;;;26.73;37.16;98857.47;4515599;31;34392;-87
2022/08/13 03:17:41;;;;;;;;;;;;;;;26.74;37.05;98863.63;4515784;31;34347;-87
2022/08/13 03:20:16;;;;;;;;;;;;;;;27.05;36.39;98855.56;4515728;31;33868;-87
2022/08/13 03:22:47;;;;;;;;;;;;;;;26.04;38.20;98853.38;4515802;31;33972;-87
2022/08/13 03:25:19;;;;;;;;;;;;;;;26.66;37.09;98851.63;4515795;31;35311;-86
2022/08/13 03:27:51;;;;;;;;;;;;;;;26.89;36.73;98846.78;4513577;31;34747;-86
2022/08/13 03:30:23;;;;;;;;;;;;;;;26.50;37.52;98845.50;4515602;31;33263;-87
2022/08/13 03:32:58;;;;;;;;;;;;;;;26.54;37.48;98847.03;4514109;31;34282;-87
2022/08/13 03:35:27;;;;;;;;;;;;;;;25.94;38.81;98846.84;4515797;31;34762;-87
2022/08/13 03:38:11;;;;;;;;;;;;;;;26.83;36.96;98847.16;4515438;31;33929;-86
2022/08/13 03:43:27;;;;;;;;;;;;;;;27.03;36.59;98845.97;4515430;31;35032;-86
2022/08/13 03:45:54;;;;;;;;;;;;;;;27.08;36.58;98841.22;4515200;31;34067;-87
2022/08/13 03:48:24;;;;;;;;;;;;;;;27.82;35.21;98837.63;4515684;31;35025;-87
2022/08/13 03:50:52;;;;;;;;;;;;;;;28.03;34.76;98836.22;4507882;31;32619;-87
2022/08/13 03:53:22;;;;;;;;;;;;;;;28.31;34.16;98834.47;4499264;31;33843;-87
2022/08/13 03:56:10;;;;;;;;;;;;;;;27.65;35.39;98842.16;4514059;31;32808;-87
2022/08/13 03:58:39;;;;;;;;;;;;;;;26.93;36.73;98840.31;4515104;31;35080;-87
2022/08/13 04:01:06;;;;;;;;;;;;;;;27.56;35.62;98834.72;4509056;31;34137;-86
2022/08/13 04:03:40;;;;;;;;;;;;;;;28.25;34.49;98840.19;4510960;31;34907;-86
2022/08/13 04:06:20;;;;;;;;;;;;;;;28.12;34.45;98830.31;4514190;31;34458;-86
2022/08/13 04:08:53;;;;;;;;;;;;;;;28.70;33.58;98838.16;4514863;31;33726;-85
2022/08/13 04:11:25;;;;;;;;;;;;;;;28.43;33.88;98833.69;4505587;31;33439;-87
2022/08/13 04:13:57;;;;;;;;;;;;;;;28.81;33.52;98831.12;4515213;31;34853;-88
2022/08/13 04:16:45;;;;;;;;;;;;;;;29.04;32.97;98829.59;4511543;31;33841;-88
2022/08/13 04:19:14;;;;;;;;;;;;;;;28.81;33.42;98832.94;4515479;31;34964;-87
2022/08/13 04:21:45;;;;;;;;;;;;;;;29.46;32.32;98835.59;4514393;31;33427;-87
2022/08/13 04:24:18;;;;;;;;;;;;;;;29.48;32.38;98823.00;4515127;31;35049;-89
2022/08/13 04:26:47;;;;;;;;;;;;;;;29.89;31.90;98829.91;4509196;31;34858;-85
2022/08/13 04:29:15;;;;;;;;;;;;;;;30.24;31.50;98821.19;4499466;31;35270;-91
2022/08/13 04:31:45;;;;;;;;;;;;;;;30.44;31.18;98823.22;4500649;31;33469;-85
2022/08/13 04:34:19;;;;;;;;;;;;;;;30.45;31.37;98824.91;4515211;31;33822;-88
2022/08/13 04:37:07;;;;;;;;;;;;;;;29.55;32.33;98824.28;4515564;31;34135;-89
2022/08/13 04:39:36;;;;;;;;;;;;;;;29.31;32.23;98832.16;4515299;31;34924;-85
2022/08/13 04:42:23;;;;;;;;;;;;;;;30.17;31.62;98822.59;4513382;31;33938;-85
2022/08/13 04:45:08;;;;;;;;;;;;;;;29.36;32.42;98823.88;4514891;31;34198;-84
2022/08/13 04:47:40;;;;;;;;;;;;;;;29.34;32.39;98821.28;4514743;31;34547;-91
2022/08/13 04:50:09;;;;;;;;;;;;;;;27.94;34.85;98825.31;4515043;31;35043;-87
2022/08/13 04:52:38;;;;;;;;;;;;;;;28.03;34.83;98819.37;4513297;31;33187;-87
2022/08/13 04:55:07;;;;;;;;;;;;;;;28.01;34.96;98821.31;4513740;31;34218;-84
2022/08/13 04:57:41;;;;;;;;;;;;;;;28.04;34.92;98810.47;4515218;31;34387;-84
2022/08/13 05:00:24;;;;;;;;;;;;;;;28.80;33.61;98820.56;4505499;31;34799;-85
2022/08/13 05:02:54;;;;;;;;;;;;;;;28.27;34.53;98823.16;4512302;31;34072;-83
2022/08/13 05:05:24;;;;;;;;;;;;;;;28.44;34.49;98824.72;4515499;31;33717;-84
2022/08/13 05:07:52;;;;;;;;;;;;;;;27.99;35.11;98831.19;4513477;31;34269;-85
2022/08/13 05:10:20;;;;;;;;;;;;;;;27.88;35.23;98831.88;4514595;31;33750;-84
2022/08/13 05:12:58;;;;;;;;;;;;;;;27.92;35.73;98828.09;4515168;31;33547;-85
2022/08/13 05:15:29;;;;;;;;;;;;;;;27.19;37.34;98829.97;4513757;31;33915;-83
2022/08/13 05:18:15;;;;;;;;;;;;;;;26.52;38.21;98832.09;4515043;31;34340;-86
2022/08/13 05:20:54;;;;;;;;;;;;;;;27.88;35.79;98827.44;4502270;31;33901;-84
2022/08/13 05:23:23;;;;;;;;;;;;;;;27.52;36.70;98832.38;4499109;31;34449;-83
2022/08/13 05:26:10;;;;;;;;;;;;;;;26.38;38.93;98830.22;4499396;31;34348;-85
2022/08/13 05:29:04;;;;;;;;;;;;;;;26.63;38.48;98832.34;4498876;31;35095;-83
2022/08/13 05:31:32;;;;;;;;;;;;;;;26.79;38.06;98824.34;4504107;31;34321;-83
2022/08/13 05:34:03;;;;;;;;;;;;;;;26.47;38.61;98835.03;4514957;31;34118;-86
2022/08/13 05:36:32;;;;;;;;;;;;;;;27.03;37.55;98836.16;4515095;31;33812;-87
2022/08/13 05:39:20;;;;;;;;;;;;;;;27.12;37.27;98838.34;4514034;31;33937;-85
2022/08/13 05:41:48;;;;;;;;;;;;;;;27.14;37.62;98833.75;4515005;31;34249;-84
2022/08/13 05:44:35;;;;;;;;;;;;;;;27.30;37.27;98831.00;4514952;31;33094;-83
2022/08/13 05:47:05;;;;;;;;;;;;;;;27.14;37.39;98831.09;4514741;31;34184;-84
2022/08/13 05:49:33;;;;;;;;;;;;;;;26.75;38.50;98831.66;4514614;31;34376;-82
2022/08/13 05:52:11;;;;;;;;;;;;;;;28.18;35.73;98828.19;4513285;31;34432;-83
2022/08/13 05:54:58;;;;;;;;;;;;;;;28.71;34.86;98821.16;4514973;31;32747;-85
2022/08/13 05:57:46;;;;;;;;;;;;;;;29.12;34.13;98826.41;4500348;31;34374;-83
2022/08/13 06:06:11;;;;;;;;;;;;;;;28.32;35.28;98829.03;4513798;31;32882;-83
2022/08/13 06:08:47;;;;;;;;;;;;;;;29.06;34.14;98834.84;4514530;31;34941;-84
2022/08/13 06:11:16;;;;;;;;;;;;;;;29.72;32.95;98825.78;4514295;31;35008;-85
2022/08/13 06:13:45;;;;;;;;;;;;;;;30.59;31.41;98826.56;4498596;31;34015;-84
2022/08/13 06:16:32;;;;;;;;;;;;;;;30.75;31.40;98818.25;4497742;31;34181;-84
2022/08/13 06:19:20;;;;;;;;;;;;;;;31.04;30.82;98823.22;4497690;31;34211;-85
2022/08/13 06:21:59;;;;;;;;;;;;;;;30.45;31.33;98818.72;4511358;31;34019;-85
2022/08/13 06:24:28;;;;;;;;;;;;;;;29.58;32.38;98829.41;4498581;31;34931;-82
2022/08/13 06:27:00;;;;;;;;;;;;;;;30.47;31.59;98820.31;4509803;31;34036;-81
2022/08/13 06:29:28;;;;;;;;;;;;;;;30.89;31.14;98839.50;4515342;31;33081;-82
2022/08/13 06:32:03;;;;;;;;;;;;;;;31.67;29.15;98845.97;4516102;31;35314;-83
2022/08/13 06:34:35;;;;;;;;;;;;;;;32.06;28.87;98841.13;4516344;31;33717;-83
2022/08/13 06:37:06;;;;;;;;;;;;;;;31.92;28.86;98861.84;4516574;31;33078;-82
2022/08/13 06:39:36;;;;;;;;;;;;;;;30.22;31.36;98873.91;4516447;31;33946;-82
2022/08/13 06:42:04;;;;;;;;;;;;;;;29.40;33.06;98873.44;4516140;31;34966;-82
2022/08/13 06:44:33;;;;;;;;;;;;;;;29.53;32.31;98878.75;4515047;31;33822;-82
2022/08/13 06:47:04;;;;;;;;;;;;;;;29.58;32.34;98869.47;4515126;31;33340;-83
2022/08/13 06:49:32;;;;;;;;;;;;;;;29.92;32.23;98845.72;4516104;31;34990;-82
2022/08/13 06:52:20;;;;;;;;;;;;;;;30.43;31.27;98837.56;4514086;31;34220;-83
2022/08/13 06:54:48;;;;;;;;;;;;;;;29.74;32.51;98842.56;4515696;31;34195;-82
2022/08/13 06:57:19;;;;;;;;;;;;;;;29.13;33.37;98854.78;4507073;31;33516;-82
2022/08/13 06:59:48;;;;;;;;;;;;;;;29.64;32.85;98862.00;4503898;31;34237;-83
2022/08/13 07:02:35;;;;;;;;;;;;;;;30.26;31.33;98856.66;4503597;31;34177;-82
2022/08/13 07:05:04;;;;;;;;;;;;;;;30.58;31.14;98853.44;4515787;31;34515;-82
2022/08/13 07:07:35;;;;;;;;;;;;;;;31.19;30.48;98851.50;4502280;31;34458;-82
2022/08/13 07:10:02;;;;;;;;;;;;;;;31.32;30.52;98846.06;4507960;31;33992;-82
2022/08/13 07:12:32;;;;;;;;;;;;;;;31.95;29.21;98844.66;4500035;31;35158;-82
2022/08/13 07:15:00;;;;;;;;;;;;;;;31.21;30.39;98841.50;4508412;31;35064;-82
2022/08/13 07:17:28;;;;;;;;;;;;;;;31.67;30.13;98844.16;4516068;31;33542;-82
2022/08/13 07:19:59;;;;;;;;;;;;;;;30.79;30.89;98849.19;4516322;31;33899;-82
2022/08/13 07:22:34;;;;;;;;;;;;;;;32.47;28.60;98845.81;4515800;31;34098;-82
2022/08/13 07:25:23;;;;;;;;;;;;;;;32.92;27.89;98841.13;4515883;31;34032;-83
2022/08/13 07:28:12;;;;;;;;;;;;;;;32.24;28.69;98839.62;4499940;31;33436;-83
2022/08/13 07:30:43;;;;;;;;;;;;;;;32.68;28.50;98843.16;4498618;31;34438;-82
2022/08/13 07:33:13;;;;;;;;;;;;;;;31.21;30.03;98845.03;4498555;31;34246;-84
2022/08/13 07:35:40;;;;;;;;;;;;;;;31.62;29.79;98853.53;4499903;31;33925;-82
2022/08/13 07:38:18;;;;;;;;;;;;;;;31.68;29.42;98853.06;4498830;31;34131;-82
2022/08/13 07:40:52;;;;;;;;;;;;;;;32.26;28.82;98848.38;4498575;31;33983;-81
2022/08/13 07:43:20;;;;;;;;;;;;;;;32.27;28.82;98851.91;4499839;31;35341;-82
2022/08/13 07:46:07;;;;;;;;;;;;;;;30.74;30.75;98856.72;4499728;31;35079;-82
2022/08/13 07:48:54;;;;;;;;;;;;;;;30.44;31.45;98852.63;4498624;31;34117;-83
2022/08/13 07:51:23;;;;;;;;;;;;;;;29.12;33.67;98850.44;4498403;31;32343;-83
2022/08/13 07:53:51;;;;;;;;;;;;;;;31.06;30.67;98837.34;4499786;31;34066;-84
2022/08/13 07:56:28;;;;;;;;;;;;;;;30.86;30.84;98838.88;4499729;31;35211;-84
2022/08/13 07:59:01;;;;;;;;;;;;;;;30.72;31.35;98831.84;4500133;31;33718;-80
2022/08/13 08:01:33;;;;;;;;;;;;;;;32.07;29.03;98832.94;4499476;31;34175;-81
2022/08/13 08:04:22;;;;;;;;;;;;;;;31.60;29.89;98836.75;4513552;31;34193;-81
2022/08/13 08:07:00;;;;;;;;;;;;;;;32.22;29.17;98836.22;4514713;31;33902;-81
2022/08/13 08:09:30;;;;;;;;;;;;;;;31.54;29.59;98839.88;4515369;31;34240;-81
2022/08/13 08:14:54;;;;;;;;;;;;;;;31.60;29.40;98831.38;4502652;31;34383;-83
2022/08/13 08:17:26;;;;;;;;;;;;;;;31.68;29.61;98831.62;4501621;31;34588;-81
2022/08/13 08:20:18;;;;;;;;;;;;;;;32.08;29.74;98831.09;4515281;31;32451;-81
2022/08/13 08:23:05;;;;;;;;;;;;;;;32.43;28.60;98829.13;4498241;31;33609;-84
2022/08/13 08:25:38;;;;;;;;;;;;;;;32.44;28.96;98829.97;4503002;31;34510;-82
2022/08/13 08:28:27;;;;;;;;;;;;;;;31.73;29.57;98827.56;4515138;31;34770;-82
2022/08/13 08:31:06;;;;;;;;;;;;;;;32.39;29.22;98824.94;4514198;31;33520;-82
2022/08/13 08:33:55;;;;;;;;;;;;;;;32.16;29.01;98824.16;4515479;31;34135;-82
2022/08/13 08:36:24;;;;;;;;;;;;;;;32.06;29.09;98820.53;4515023;31;34414;-82
2022/08/13 08:44:42;;;;;;;;;;;;;;;32.09;29.85;98816.75;4514368;31;34131;-82
2022/08/13 08:47:10;;;;;;;;;;;;;;;32.15;29.36;98818.91;4514347;31;34978;-82
2022/08/13 08:49:40;;;;;;;;;;;;;;;32.49;28.76;98810.78;4514853;31;34081;-82
2022/08/13 08:52:11;;;;;;;;;;;;;;;32.41;28.45;98809.59;4514342;31;33423;-83
2022/08/13 08:54:42;;;;;;;;;;;;;;;32.85;28.29;98805.00;4513739;31;34008;-82
2022/08/13 08:57:14;;;;;;;;;;;;;;;32.79;28.11;98804.69;4502215;31;34135;-82
2022/08/13 08:59:43;;;;;;;;;;;;;;;32.98;27.76;98804.00;4499601;31;35031;-82
2022/08/13 09:02:23;;;;;;;;;;;;;;;33.23;27.30;98806.28;4512216;31;33563;-80
2022/08/13 09:04:57;;;;;;;;;;;;;;;31.57;29.99;98808.34;4504370;31;34211;-82
2022/08/13 09:07:29;;;;;;;;;;;;;;;31.98;29.78;98806.88;4511973;31;34332;-82
2022/08/13 09:09:57;;;;;;;;;;;;;;;31.96;29.74;98798.94;4499092;31;34383;-82
2022/08/13 09:12:25;;;;;;;;;;;;;;;31.67;30.43;98800.41;4510426;31;33317;-82
2022/08/13 09:14:56;;;;;;;;;;;;;;;32.37;29.29;98807.25;4511022;31;34746;-83
2022/08/13 09:17:24;;;;;;;;;;;;;;;33.02;27.92;98800.91;4514708;31;35488;-83
2022/08/13 09:20:12;;;;;;;;;;;;;;;32.91;28.88;98799.09;4515005;31;34308;-83
2022/08/13 09:22:47;;;;;;;;;;;;;;;32.29;29.11;98799.84;4513910;31;34374;-82
2022/08/13 09:25:24;;;;;;;;;;;;;;;32.03;29.38;98790.41;4513648;31;34901;-83
2022/08/13 09:27:52;;;;;;;;;;;;;;;32.53;29.10;98796.13;4514560;31;34358;-82
2022/08/13 09:30:39;;;;;;;;;;;;;;;32.28;29.14;98795.47;4513908;31;33924;-82
2022/08/13 09:33:12;;;;;;;;;;;;;;;31.81;29.89;98789.44;4514666;31;33922;-82
2022/08/13 09:35:59;;;;;;;;;;;;;;;31.77;29.96;98782.63;4514770;31;34316;-82
2022/08/13 09:38:27;;;;;;;;;;;;;;;31.55;29.89;98788.00;4505685;31;34283;-84
2022/08/13 09:41:00;;;;;;;;;;;;;;;32.11;29.31;98783.44;4512716;31;35669;-84
2022/08/13 09:43:44;;;;;;;;;;;;;;;31.42;29.84;98778.25;4514374;31;33543;-89
2022/08/13 09:46:16;;;;;;;;;;;;;;;30.67;31.30;98783.19;4514503;31;34321;-88
2022/08/13 09:48:51;;;;;;;;;;;;;;;30.41;31.66;98769.94;4514606;31;34446;-87
2022/08/13 09:51:21;;;;;;;;;;;;;;;31.21;30.64;98779.91;4514833;31;33980;-88
2022/08/13 09:54:09;;;;;;;;;;;;;;;31.81;29.50;98756.44;4514590;31;34389;-85
2022/08/13 09:56:38;;;;;;;;;;;;;;;30.73;30.69;98769.34;4514854;31;34266;-86
2022/08/13 09:59:06;;;;;;;;;;;;;;;30.74;30.91;98766.56;4513612;31;34403;-86
2022/08/13 10:01:36;;;;;;;;;;;;;;;31.44;30.21;98764.72;4513577;31;33959;-86
2022/08/13 10:04:26;;;;;;;;;;;;;;;31.63;29.84;98764.13;4513783;31;32952;-87
2022/08/13 10:06:58;;;;;;;;;;;;;;;31.66;29.42;98758.50;4514362;31;34325;-86
2022/08/13 10:09:30;;;;;;;;;;;;;;;32.34;28.17;98761.91;4514727;31;34336;-85
2022/08/13 10:12:04;;;;;;;;;;;;;;;31.66;28.74;98763.88;4514989;31;34117;-86
2022/08/13 10:14:47;;;;;;;;;;;;;;;32.52;28.18;98762.25;4515020;31;33090;-86
2022/08/13 10:17:24;;;;;;;;;;;;;;;32.34;28.42;98761.91;4514432;31;33686;-85
2022/08/13 10:20:13;;;;;;;;;;;;;;;31.45;28.87;98756.59;4514390;31;34127;-87
2022/08/13 10:22:42;;;;;;;;;;;;;;;31.93;28.02;98755.44;4514334;31;33423;-85
2022/08/13 10:25:11;;;;;;;;;;;;;;;32.08;27.42;98753.34;4513374;31;34121;-87
2022/08/13 10:27:39;;;;;;;;;;;;;;;31.43;28.45;98757.69;4514685;31;33906;-86
2022/08/13 10:30:25;;;;;;;;;;;;;;;31.82;27.79;98748.25;4514552;31;34597;-85
2022/08/13 10:33:13;;;;;;;;;;;;;;;31.39;28.49;98757.06;4513325;31;34533;-87
2022/08/13 10:35:44;;;;;;;;;;;;;;;32.06;28.25;98755.31;4512789;31;34395;-86
2022/08/13 10:38:15;;;;;;;;;;;;;;;32.01;28.51;98757.50;4514197;31;34117;-86
2022/08/13 10:40:46;;;;;;;;;;;;;;;32.60;27.89;98752.56;4514186;31;34644;-87
2022/08/13 10:43:14;;;;;;;;;;;;;;;33.15;26.70;98744.31;4512916;31;34163;-87
2022/08/13 10:45:58;;;;;;;;;;;;;;;32.48;27.87;98750.06;4513874;31;34208;-85
2022/08/13 10:48:38;;;;;;;;;;;;;;;32.56;27.30;98742.22;4513804;31;34305;-86
2022/08/13 10:51:06;;;;;;;;;;;;;;;32.49;27.80;98749.06;4513971;31;35293;-86
2022/08/13 10:56:20;;;;;;;;;;;;;;;32.57;27.27;98749.28;4513258;31;33186;-87
2022/08/13 10:58:47;;;;;;;;;;;;;;;33.02;26.76;98746.34;4513913;31;34245;-86
2022/08/13 11:01:22;;;;;;;;;;;;;;;33.35;25.76;98738.03;4513954;31;34421;-88
2022/08/13 11:03:51;;;;;;;;;;;;;;;33.36;26.04;98737.03;4513856;31;34648;-87
2022/08/13 11:06:35;;;;;;;;;;;;;;;33.80;25.27;98734.97;4513924;31;33835;-87
2022/08/13 11:09:04;;;;;;;;;;;;;;;33.64;25.25;98729.22;4514001;31;33696;-86
2022/08/13 11:11:55;;;;;;;;;;;;;;;34.00;24.73;98733.19;4514321;31;34082;-87
2022/08/13 11:14:26;;;;;;;;;;;;;;;33.70;24.49;98730.53;4514732;31;33732;-87
2022/08/13 11:17:04;;;;;;;;;;;;;;;33.54;24.92;98726.53;4514787;31;33313;-87
2022/08/13 11:19:46;;;;;;;;;;;;;;;33.43;25.47;98727.44;4514906;31;34100;-86
2022/08/13 11:22:16;;;;;;;;;;;;;;;33.25;25.13;98723.69;4516038;31;34374;-88
2022/08/13 11:24:52;;;;;;;;;;;;;;;33.06;24.93;98719.09;4515789;31;34104;-87
2022/08/13 11:27:19;;;;;;;;;;;;;;;32.66;25.46;98727.03;4516036;31;34068;-88
2022/08/13 11:29:53;;;;;;;;;;;;;;;32.42;26.13;98716.53;4515644;31;33770;-87
2022/08/13 11:32:21;;;;;;;;;;;;;;;32.02;26.19;98719.00;4515723;31;34128;-87
2022/08/13 11:34:49;;;;;;;;;;;;;;;32.97;25.04;98711.84;4516124;31;34270;-87
2022/08/13 11:37:16;;;;;;;;;;;;;;;33.29;24.90;98719.75;4515793;31;33306;-88
2022/08/13 11:39:44;;;;;;;;;;;;;;;32.74;25.42;98716.50;4515887;31;33110;-87
2022/08/13 11:42:31;;;;;;;;;;;;;;;32.65;25.53;98726.16;4515556;31;34030;-86
2022/08/13 11:44:59;;;;;;;;;;;;;;;33.36;24.24;98714.69;4515829;31;34966;-87
2022/08/13 11:47:29;;;;;;;;;;;;;;;33.21;24.60;98711.53;4515719;31;33287;-86
2022/08/13 11:49:58;;;;;;;;;;;;;;;33.90;23.65;98705.37;4515639;31;34455;-87
2022/08/13 11:52:26;;;;;;;;;;;;;;;34.30;23.38;98699.91;4515753;31;34898;-86
2022/08/13 11:54:55;;;;;;;;;;;;;;;33.04;24.17;98704.13;4515929;31;34890;-86
2022/08/13 11:57:22;;;;;;;;;;;;;;;33.05;24.51;98700.44;4515697;31;33300;-87
2022/08/13 11:59:49;;;;;;;;;;;;;;;32.65;25.68;98698.47;4515761;31;34874;-87
2022/08/13 12:02:24;;;;;;;;;;;;;;;33.56;24.64;98694.12;4515656;31;34110;-86
2022/08/13 12:04:56;;;;;;;;;;;;;;;32.81;24.74;98712.28;4515774;31;33717;-86
2022/08/13 12:07:23;;;;;;;;;;;;;;;33.56;23.48;98702.19;4514444;31;33025;-86
2022/08/13 12:09:53;;;;;;;;;;;;;;;33.90;24.29;98708.06;4515390;31;34370;-87
2022/08/13 12:12:24;;;;;;;;;;;;;;;33.40;23.74;98695.47;4515873;31;33984;-87
2022/08/13 12:15:00;;;;;;;;;;;;;;;33.31;24.13;98696.31;4515456;31;35144;-86
2022/08/13 12:17:29;;;;;;;;;;;;;;;33.01;23.50;98688.25;4515715;31;33652;-87
2022/08/13 12:20:21;;;;;;;;;;;;;;;33.74;23.11;98689.78;4515407;31;34228;-88
2022/08/13 12:22:55;;;;;;;;;;;;;;;33.74;23.71;98684.41;4515700;31;34378;-87
2022/08/13 12:25:23;;;;;;;;;;;;;;;33.26;23.68;98693.16;4513421;31;34966;-86
2022/08/13 12:28:15;;;;;;;;;;;;;;;33.97;22.93;98686.84;4515489;31;33942;-86
2022/08/13 12:30:52;;;;;;;;;;;;;;;33.70;22.97;98687.53;4515219;31;34615;-90
2022/08/13 12:33:19;;;;;;;;;;;;;;;32.49;24.85;98684.69;4514198;31;35248;-87
2022/08/13 12:35:48;;;;;;;;;;;;;;;33.32;23.51;98670.28;4514064;31;34311;-87
2022/08/13 12:38:24;;;;;;;;;;;;;;;32.56;25.08;98683.16;4514309;31;33373;-86
2022/08/13 12:40:57;;;;;;;;;;;;;;;32.96;24.00;98679.75;4515258;31;34908;-88
2022/08/13 12:43:26;;;;;;;;;;;;;;;31.86;26.27;98674.69;4514103;31;34530;-87
2022/08/13 12:46:13;;;;;;;;;;;;;;;33.24;24.77;98662.06;4515446;31;34280;-87
2022/08/13 12:49:01;;;;;;;;;;;;;;;33.53;23.47;98657.66;4515055;31;34206;-87
2022/08/13 12:51:29;;;;;;;;;;;;;;;33.62;23.44;98666.72;4515296;31;34128;-87
2022/08/13 12:54:16;;;;;;;;;;;;;;;33.60;24.08;98660.63;4515134;31;34111;-86
2022/08/13 12:57:04;;;;;;;;;;;;;;;31.73;25.47;98660.56;4515363;31;34041;-87
2022/08/13 12:59:51;;;;;;;;;;;;;;;32.96;24.85;98660.94;4515254;31;33786;-88
2022/08/13 13:02:29;;;;;;;;;;;;;;;32.78;24.88;98666.91;4515399;31;34917;-87
2022/08/13 13:04:57;;;;;;;;;;;;;;;33.02;24.27;98668.47;4515354;31;34457;-87
2022/08/13 13:07:47;;;;;;;;;;;;;;;33.35;24.15;98659.25;4515395;31;34039;-87
2022/08/13 13:10:35;;;;;;;;;;;;;;;33.58;23.29;98654.53;4514105;31;34375;-87
2022/08/13 13:13:03;;;;;;;;;;;;;;;33.96;23.90;98645.66;4515047;31;34975;-87
2022/08/13 13:15:39;;;;;;;;;;;;;;;33.85;23.44;98646.66;4515257;31;34208;-86
2022/08/13 13:18:26;;;;;;;;;;;;;;;33.05;24.37;98642.19;4514323;31;35098;-85
2022/08/13 13:21:14;;;;;;;;;;;;;;;32.80;24.18;98640.78;4515204;31;33371;-86
2022/08/13 13:23:44;;;;;;;;;;;;;;;32.87;24.39;98643.78;4515216;31;34364;-85
2022/08/13 13:26:27;;;;;;;;;;;;;;;33.07;23.90;98623.25;4504448;31;34900;-86
2022/08/13 13:28:56;;;;;;;;;;;;;;;33.31;23.47;98625.59;4514303;31;34336;-86
2022/08/13 13:31:23;;;;;;;;;;;;;;;32.57;24.46;98626.66;4513962;31;33351;-86
2022/08/13 13:33:53;;;;;;;;;;;;;;;33.20;22.96;98623.03;4514759;31;35098;-86
2022/08/13 13:36:21;;;;;;;;;;;;;;;32.70;23.12;98626.47;4513435;31;35797;-85
2022/08/13 13:38:52;;;;;;;;;;;;;;;33.02;23.43;98626.34;4499223;31;34816;-86
2022/08/13 13:41:22;;;;;;;;;;;;;;;32.88;23.54;98616.81;4514038;31;34086;-86
2022/08/13 13:44:10;;;;;;;;;;;;;;;33.06;22.21;98608.97;4514597;31;33821;-88
2022/08/13 13:46:57;;;;;;;;;;;;;;;32.64;23.10;98614.41;4514939;31;34019;-88
2022/08/13 13:49:24;;;;;;;;;;;;;;;32.91;22.67;98607.63;4514855;31;34992;-87
2022/08/13 13:51:56;;;;;;;;;;;;;;;32.86;22.39;98617.91;4514982;31;33364;-87
2022/08/13 13:54:26;;;;;;;;;;;;;;;33.57;21.10;98609.84;4514546;31;33998;-88